Flight Track Log - Related Links

Times and Time Zones

All times are in EDT time to prevent confusion due to time zone crossing. See the N480QS flight status page for this flight to view local times or setup timezone preferences in your user account.

Time Position Orientation Groundspeed Altitude Reporting Facility
EDT Latitude Longitude Course Direction KTS MPH feet Rate Location/Type
Fri 08:58:04 AM 39.8667 -75.2667 242° Southwest 182 209 800  Level Philadelphia TRACON
Fri 08:58:52 AM 39.8167 -75.3167 226° Southwest 253 291 2,400 2,556 Climbing Philadelphia TRACON
Fri 08:59:52 AM 39.7667 -75.3667 218° Southwest 272 313 5,400 2,700 Climbing Philadelphia TRACON
Fri 09:00:52 AM 39.7000 -75.3000 142° Southeast 319 367 7,800 2,132 Climbing Philadelphia TRACON
Fri 09:02:24 AM 39.7219 -75.1433 80° East 330 380 10,800 1,753 Climbing New York Center
Fri 09:03:26 AM 39.7458 -75.0044 77° East 356 410 12,300 1,623 Climbing New York Center
Fri 09:04:26 AM 39.7669 -74.8786 78° East 381 438 14,100 1,678 Climbing New York Center
Fri 09:05:24 AM 39.7906 -74.7342 78° East 392 451 15,600 1,641 Climbing New York Center
Fri 09:06:23 AM 39.8058 -74.5892 82° East 398 458 17,300 1,574 Climbing New York Center
Fri 09:08:27 AM 39.8183 -74.2803 87° East 425 489 20,400 1,427 Climbing Boston Center
Fri 09:09:28 AM 39.8472 -74.1278 76° East 432 497 21,700 1,220 Climbing Boston Center
Fri 09:10:30 AM 39.9286 -73.9711 56° Northeast 436 502 22,900 1,073 Climbing Boston Center
Fri 09:11:31 AM 40.0008 -73.8375 55° Northeast 446 513 23,900 1,033 Climbing Boston Center
Fri 09:12:32 AM 40.0575 -73.6822 64° Northeast 471 542 25,000 1,131 Climbing Boston Center
Fri 09:13:33 AM 40.1164 -73.5150 65° Northeast 484 557 26,200 1,033 Climbing Boston Center
Fri 09:14:34 AM 40.1739 -73.3533 65° Northeast 493 567 27,100 878 Climbing Boston Center
Fri 09:15:36 AM 40.2308 -73.1914 65° Northeast 508 585 28,000 1,024 Climbing Boston Center
Fri 09:16:37 AM 40.2922 -73.0192 65° Northeast 520 598 29,200 1,328 Climbing Boston Center
Fri 09:17:38 AM 40.3522 -72.8436 66° East 526 605 30,700 1,279 Climbing Boston Center
Fri 09:18:39 AM 40.4136 -72.6692 65° Northeast 527 606 31,800 1,220 Climbing Boston Center
Fri 09:19:41 AM 40.4869 -72.4533 66° East 541 623 33,200 1,366 Climbing Boston Center
Fri 09:20:42 AM 40.5472 -72.2739 66° East 540 621 34,600 1,525 Climbing Boston Center
Fri 09:21:43 AM 40.6061 -72.1003 66° East 526 605 36,300 1,623 Climbing Boston Center
Fri 09:22:44 AM 40.6644 -71.9286 66° East 521 600 37,900 984 Climbing Boston Center
Fri 09:23:45 AM 40.7208 -71.7600 66° East 509 586 38,300 439 Climbing Boston Center
Fri 09:24:47 AM 40.7836 -71.5706 66° East 511 588 38,800 488 Climbing Boston Center
Fri 09:25:48 AM 40.8339 -71.4158 67° East 517 595 39,300 639 Climbing Boston Center
Fri 09:26:49 AM 40.8953 -71.2425 65° Northeast 518 596 40,100 836 Climbing Boston Center
Fri 09:27:50 AM 40.9636 -71.0439 65° Northeast 501 577 41,000 439 Climbing Boston Center
Fri 09:28:52 AM 41.0144 -70.8972 65° Northeast 485 558 41,000  Level Boston Center
Fri 09:29:53 AM 41.0694 -70.7356 66° East 485 558 41,000  Level Boston Center
Fri 09:30:54 AM 41.1247 -70.5733 66° East 485 558 41,000  Level Boston Center
Fri 09:31:56 AM 41.1800 -70.4100 66° East 485 558 41,000  Level Boston Center
Fri 09:32:57 AM 41.2464 -70.2133 66° East 486 559 41,000  Level Boston Center
Fri 09:33:58 AM 41.2956 -70.0664 66° East 487 560 41,000  Level Boston Center
Fri 09:34:59 AM 41.3500 -69.9006 66° East 488 562 41,000  Level Boston Center
Fri 09:36:01 AM 41.4053 -69.7331 66° East 491 565 41,000  Level Boston Center
Fri 09:37:02 AM 41.4608 -69.5647 66° East 494 568 41,000  Level Boston Center
Fri 09:38:03 AM 41.5264 -69.3625 67° East 494 568 41,000  Level Boston Center
Fri 09:39:04 AM 41.5828 -69.1914 66° East 500 575 41,000  Level Boston Center
Fri 09:40:06 AM 41.6308 -69.0406 67° East 502 578 41,000  Level Boston Center
Fri 09:41:07 AM 41.6964 -68.8342 67° East 504 580 41,000  Level Boston Center
Fri 09:42:09 AM 41.7511 -68.6619 67° East 505 581 41,000  Level Boston Center
Fri 09:43:10 AM 41.8061 -68.4881 67° East 506 582 41,000  Level Boston Center
Fri 09:44:11 AM 41.8600 -68.3147 67° East 507 583 41,000  Level Boston Center
Fri 09:44:59 AM 41.9000 -68.1667 70° East 510 587 41,000  Level Moncton Center
Fri 09:45:59 AM 41.9333 -67.9833 76° East 510 587 41,000  Level Moncton Center
Fri 09:46:59 AM 42.0000 -67.8167 62° Northeast 510 587 41,000  Level Moncton Center
Fri 09:47:59 AM 42.0500 -67.6333 70° East 510 587 41,000  Level Moncton Center
Fri 09:48:59 AM 42.1000 -67.4500 70° East 510 587 41,000  Level Moncton Center
Fri 09:49:59 AM 42.1667 -67.3000 59° Northeast 500 575 41,000  Level Moncton Center
Fri 09:50:59 AM 42.2167 -67.1000 71° East 500 575 41,000  Level Moncton Center
Fri 09:51:59 AM 42.2500 -66.9500 73° East 500 575 41,000  Level Moncton Center
Fri 09:52:59 AM 42.3000 -66.7667 70° East 500 575 41,000  Level Moncton Center
Fri 09:53:59 AM 42.3667 -66.5833 64° Northeast 500 575 41,000  Level Moncton Center
Fri 09:54:59 AM 42.4167 -66.4167 68° East 500 575 41,000  Level Moncton Center
Fri 09:55:59 AM 42.4667 -66.2333 70° East 500 575 41,000  Level Moncton Center
Fri 09:56:59 AM 42.5000 -66.0667 75° East 500 575 41,000  Level Moncton Center
Fri 09:57:59 AM 42.5500 -65.9000 68° East 500 575 41,000  Level Moncton Center
Fri 09:58:59 AM 42.6167 -65.7167 64° Northeast 500 575 41,000  Level Moncton Center
Fri 09:59:59 AM 42.6667 -65.5333 70° East 500 575 41,000  Level Moncton Center
Fri 10:00:59 AM 42.7167 -65.3500 70° East 500 575 41,000  Level Moncton Center
Fri 10:01:59 AM 42.7667 -65.2000 66° East 510 587 41,000  Level Moncton Center
Fri 10:02:59 AM 42.8167 -65.0167 70° East 500 575 41,000  Level Moncton Center
Fri 10:03:59 AM 42.8500 -64.8333 76° East 500 575 41,000  Level Moncton Center
Fri 10:04:59 AM 42.9000 -64.6500 70° East 510 587 41,000  Level Moncton Center
Fri 10:05:59 AM 42.9500 -64.4667 70° East 500 575 41,000  Level Moncton Center
Fri 10:06:59 AM 43.0000 -64.2833 69° East 500 575 41,000  Level Moncton Center
Fri 10:07:59 AM 43.0500 -64.1167 68° East 500 575 41,000  Level Moncton Center
Fri 10:08:59 AM 43.1000 -63.9167 71° East 500 575 41,000  Level Moncton Center
Fri 10:09:59 AM 43.1500 -63.7500 68° East 500 575 41,000  Level Moncton Center
Fri 10:10:59 AM 43.2000 -63.5667 69° East 500 575 41,000  Level Moncton Center
Fri 10:11:59 AM 43.2333 -63.3833 76° East 500 575 41,000  Level Moncton Center
Fri 10:12:59 AM 43.2833 -63.2000 69° East 500 575 41,000  Level Moncton Center
Fri 10:13:59 AM 43.3333 -63.0500 65° Northeast 500 575 41,000  Level Moncton Center
Fri 10:14:59 AM 43.3667 -62.8333 78° East 510 587 41,000  Level Moncton Center
Fri 10:15:59 AM 43.4167 -62.6667 68° East 500 575 41,000  Level Moncton Center
Fri 10:16:59 AM 43.4667 -62.4833 69° East 500 575 41,000  Level Moncton Center
Fri 10:17:59 AM 43.5167 -62.3000 69° East 500 575 41,000  Level Moncton Center
Fri 10:18:59 AM 43.5500 -62.1167 76° East 500 575 41,000  Level Moncton Center
Fri 10:19:59 AM 43.5833 -61.9333 76° East 500 575 41,000  Level Moncton Center
Fri 10:20:59 AM 43.6333 -61.7667 67° East 500 575 41,000  Level Moncton Center
Fri 10:21:59 AM 43.6833 -61.5833 69° East 500 575 41,000  Level Moncton Center
Fri 10:22:59 AM 43.7333 -61.3833 71° East 500 575 41,000  Level Moncton Center
Fri 10:23:59 AM 43.7667 -61.2000 76° East 500 575 41,000  Level Moncton Center
Fri 10:24:59 AM 43.8167 -61.0167 69° East 510 587 41,000  Level Moncton Center
Fri 10:25:59 AM 43.8667 -60.8333 69° East 510 587 41,000  Level Moncton Center
Fri 10:26:59 AM 43.8833 -60.6333 83° East 510 587 41,000  Level Moncton Center
Fri 10:27:59 AM 43.9333 -60.4667 67° East 510 587 41,000  Level Moncton Center
Fri 10:28:59 AM 43.9833 -60.2667 71° East 510 587 41,000  Level Moncton Center
Fri 10:29:59 AM 44.0167 -60.1000 74° East 500 575 41,000  Level Moncton Center
Fri 10:30:59 AM 44.0667 -59.8833 72° East 500 575 41,000  Level Moncton Center
Fri 10:31:59 AM 44.1000 -59.7167 74° East 500 575 41,000  Level Moncton Center
Fri 10:32:59 AM 44.1500 -59.5333 69° East 500 575 41,000  Level Moncton Center
Fri 10:33:59 AM 44.1833 -59.3333 77° East 510 587 41,000  Level Moncton Center
Fri 10:34:59 AM 44.2333 -59.1500 69° East 500 575 41,000  Level Moncton Center
Fri 10:35:59 AM 44.2667 -58.9500 77° East 500 575 41,000  Level Moncton Center
Fri 10:36:59 AM 44.3000 -58.7833 74° East 510 587 41,000  Level Moncton Center
Fri 10:37:59 AM 44.3333 -58.6000 76° East 500 575 41,000  Level Moncton Center
Fri 10:38:59 AM 44.3833 -58.4000 71° East 500 575 41,000  Level Moncton Center
Fri 10:39:59 AM 44.4167 -58.2167 76° East 500 575 41,000  Level Moncton Center
Fri 10:40:59 AM 44.4500 -58.0167 77° East 500 575 41,000  Level Moncton Center
Fri 10:41:59 AM 44.5000 -57.8333 69° East 490 564 41,000  Level Moncton Center
Fri 10:42:59 AM 44.5333 -57.6667 74° East 490 564 41,000  Level Moncton Center
Fri 10:43:59 AM 44.5667 -57.4667 77° East 490 564 41,000  Level Moncton Center
Fri 10:44:59 AM 44.6000 -57.2833 76° East 480 552 41,000  Level Moncton Center
Fri 10:45:59 AM 44.6333 -57.1000 76° East 480 552 41,000  Level Moncton Center
Fri 10:46:59 AM 44.6667 -56.9167 76° East 480 552 41,000  Level Moncton Center
Fri 10:47:59 AM 44.7000 -56.7500 74° East 480 552 41,000  Level Moncton Center
Fri 10:48:59 AM 44.7333 -56.5500 77° East 480 552 41,000  Level Moncton Center
Fri 10:49:59 AM 44.7667 -56.3833 74° East 480 552 41,000  Level Moncton Center
Fri 10:50:59 AM 44.8000 -56.1833 77° East 490 564 41,000  Level Moncton Center
Fri 10:51:59 AM 44.8333 -56.0167 74° East 490 564 41,000  Level Moncton Center
Fri 10:52:59 AM 44.8667 -55.8167 77° East 490 564 41,000  Level Moncton Center
Fri 10:53:59 AM 44.9000 -55.6333 76° East 480 552 41,000  Level Moncton Center
Fri 10:54:59 AM 44.9333 -55.4500 76° East 490 564 41,000  Level Moncton Center
Fri 10:55:59 AM 44.9667 -55.2667 76° East 480 552 41,000  Level Moncton Center
Fri 10:56:59 AM 45.0000 -55.0833 76° East 480 552 41,000  Level Moncton Center
Fri 10:57:59 AM 45.0167 -54.9167 82° East 470 541 41,000  Level Moncton Center
Fri 10:58:59 AM 45.0500 -54.7167 77° East 470 541 41,000  Level Moncton Center
Fri 10:59:59 AM 45.0833 -54.5500 74° East 470 541 41,000  Level Moncton Center
Fri 11:00:59 AM 45.1167 -54.3500 77° East 460 529 41,000  Level Moncton Center
Fri 11:01:29 AM 45.1333 -54.2833 70° East 470 541 41,000  Level Gander Center
Fri 11:01:59 AM 45.1333 -54.1833 90° East 460 529 41,000  Level Moncton Center
Fri 11:02:29 AM 45.1500 -54.0833 77° East 470 541 41,000  Level Gander Center
Fri 11:03:29 AM 45.2000 -53.9167 67° East 460 529 41,000  Level Gander Center
Fri 11:03:59 AM 45.2000 -53.8167 90° East 470 541 41,000  Level Moncton Center
Fri 11:04:59 AM 45.2167 -53.6500 82° East 470 541 41,000  Level Moncton Center
Fri 11:05:59 AM 45.2500 -53.4667 75° East 480 552 41,000  Level Moncton Center
Fri 11:06:29 AM 45.2667 -53.3667 77° East 470 541 41,000  Level Gander Center
Fri 11:07:29 AM 45.3167 -53.1833 69° East 470 541 41,000  Level Gander Center
Fri 11:08:29 AM 45.3333 -53.0000 83° East 480 552 41,000  Level Gander Center
Fri 11:09:29 AM 45.3667 -52.8167 75° East 470 541 41,000  Level Gander Center
Fri 11:10:29 AM 45.3833 -52.6333 83° East 470 541 41,000  Level Gander Center
Fri 11:11:29 AM 45.4167 -52.4333 77° East 460 529 41,000  Level Gander Center
Fri 11:11:59 AM 45.4333 -52.3500 74° East 470 541 41,000  Level Moncton Center
Fri 11:12:59 AM 45.4333 -52.1833 90° East 470 541 41,000  Level Moncton Center
Fri 11:13:59 AM 45.4667 -52.0167 74° East 460 529 41,000  Level Moncton Center
Fri 11:14:59 AM 45.5000 -51.8333 75° East 460 529 41,000  Level Moncton Center
Fri 11:15:29 AM 45.5333 -51.7500 60° Northeast 450 518 41,000  Level Gander Center
Fri 11:16:29 AM 45.5833 -51.5667 69° East 460 529 41,000  Level Gander Center
Fri 11:17:13 AM 45.6167 -51.4333 70° East 460 529 41,000  Level Gander Center
Fri 11:17:59 AM 45.6500 -51.3167 68° East 460 529 41,000  Level Moncton Center
Fri 11:18:59 AM 45.6833 -51.1333 75° East 460 529 41,000  Level Moncton Center
Fri 11:19:29 AM 45.7000 -51.0667 70° East 460 529 41,000  Level Gander Center
Fri 11:20:29 AM 45.7500 -50.8833 69° East 470 541 41,000  Level Gander Center
Fri 11:21:29 AM 45.8000 -50.7167 67° East 470 541 41,000  Level Gander Center
Fri 11:22:29 AM 45.8333 -50.5333 75° East 480 552 41,000  Level Gander Center
Fri 11:23:29 AM 45.8833 -50.3500 69° East 480 552 41,000  Level Gander Center
Fri 11:24:00 AM 45.5000 -52.0000 70° East 444 511 41,000  Level ETMS Enhanced Traffic Management System
Fri 11:25:13 AM 45.9500 -50.0500 70° East 470 541 41,000  Level Gander Center
Fri 11:26:00 AM 46.0000 -50.0000 86° East 471 542 41,000  Level ETMS Enhanced Traffic Management System
Fri 11:27:29 AM 45.9833 -49.6333 86° East 480 552 41,000  Level Gander Center
Fri 11:28:13 AM 46.0000 -49.4667 82° East 480 552 41,000  Level Gander Center
Fri 11:29:13 AM 46.0000 -49.2833 90° East 470 541 41,000  Level Gander Center
Fri 11:30:29 AM 46.0167 -49.0500 84° East 490 564 41,000  Level Gander Center
Fri 11:31:13 AM 46.0333 -48.9000 81° East 480 552 41,000  Level Gander Center
Fri 11:32:13 AM 46.0333 -48.7333 90° East 490 564 41,000  Level Gander Center
Fri 11:33:13 AM 46.0333 -48.5000 90° East 480 552 41,000  Level Gander Center
Fri 11:34:13 AM 46.0500 -48.3333 82° East 480 552 41,000  Level Gander Center
Fri 11:35:13 AM 46.0333 -48.1500 97° East 480 552 41,000  Level Gander Center
Fri 11:36:13 AM 46.0500 -47.9500 83° East 480 552 41,000  Level Gander Center
Fri 11:37:13 AM 46.0667 -47.7500 83° East 480 552 41,000  Level Gander Center
Fri 11:38:13 AM 46.0500 -47.5500 97° East 480 552 41,000  Level Gander Center
Fri 11:39:13 AM 46.0667 -47.3833 82° East 470 541 41,000  Level Gander Center
Fri 11:40:13 AM 46.0667 -47.1833 90° East 480 552 41,000  Level Gander Center
Fri 11:41:13 AM 46.0667 -47.0167 90° East 470 541 41,000  Level Gander Center
Fri 12:23:00 PM 46.0000 -40.0000 86° East 454 522 41,000  Level ETMS Enhanced Traffic Management System
Fri 01:19:00 PM 46.0000 -30.0000 86° East 462 532 41,000  Level ETMS Enhanced Traffic Management System
Fri 01:20:00 PM 46.0433 -28.8841 87° East  Level FlightAware Approximate
Fri 01:21:00 PM 46.0494 -28.6991 87° East  Level FlightAware Approximate
Fri 01:22:00 PM 46.0553 -28.5140 87° East  Level FlightAware Approximate
Fri 01:23:00 PM 46.0608 -28.3289 87° East  Level FlightAware Approximate
Fri 01:24:00 PM 46.0660 -28.1438 88° East  Level FlightAware Approximate
Fri 01:25:00 PM 46.0798 -27.5951 88° East 462 532 41,000  Level FlightAware Transoceanic
Fri 01:26:00 PM 46.0838 -27.4098 88° East 462 532 41,000  Level FlightAware Transoceanic
Fri 01:27:00 PM 46.0876 -27.2246 88° East 462 532 41,000  Level FlightAware Transoceanic
Fri 01:28:00 PM 46.0910 -27.0393 89° East 462 532 41,000  Level FlightAware Transoceanic
Fri 01:29:00 PM 46.0942 -26.8540 89° East 462 532 41,000  Level FlightAware Transoceanic
Fri 01:30:00 PM 46.0970 -26.6686 89° East 462 532 41,000  Level FlightAware Transoceanic
Fri 01:31:00 PM 46.0995 -26.4833 89° East 462 532 41,000  Level FlightAware Transoceanic
Fri 01:32:00 PM 46.1018 -26.2979 89° East 462 532 41,000  Level FlightAware Transoceanic
Fri 01:33:00 PM 46.1037 -26.1125 89° East 462 532 41,000  Level FlightAware Transoceanic
Fri 01:34:00 PM 46.1054 -25.9271 89° East 462 532 41,000  Level FlightAware Transoceanic
Fri 01:35:00 PM 46.1068 -25.7417 89° East 462 532 41,000  Level FlightAware Transoceanic
Fri 01:36:00 PM 46.1078 -25.5563 90° East 462 532 41,000  Level FlightAware Transoceanic
Fri 01:37:00 PM 46.1086 -25.3709 90° East 462 532 41,000  Level FlightAware Transoceanic
Fri 01:38:00 PM 46.1090 -25.1854 90° East 462 532 41,000  Level FlightAware Transoceanic
Fri 01:39:00 PM 46.1091 -25.0000 90° East 462 532 41,000  Level FlightAware Transoceanic
Fri 01:40:00 PM 46.1090 -24.8146 90° East 462 532 41,000  Level FlightAware Transoceanic
Fri 01:41:00 PM 46.1086 -24.6291 90° East 462 532 41,000  Level FlightAware Transoceanic
Fri 01:42:00 PM 46.1078 -24.4437 90° East 462 532 41,000  Level FlightAware Transoceanic
Fri 01:43:00 PM 46.1068 -24.2583 91° East 462 532 41,000  Level FlightAware Transoceanic
Fri 01:44:00 PM 46.1054 -24.0729 91° East 462 532 41,000  Level FlightAware Transoceanic
Fri 01:45:00 PM 46.1037 -23.8875 91° East 462 532 41,000  Level FlightAware Transoceanic
Fri 01:46:00 PM 46.1018 -23.7021 91° East 462 532 41,000  Level FlightAware Transoceanic
Fri 01:47:00 PM 46.0995 -23.5167 91° East 462 532 41,000  Level FlightAware Transoceanic
Fri 01:48:00 PM 46.0970 -23.3314 91° East 462 532 41,000  Level FlightAware Transoceanic
Fri 01:49:00 PM 46.0942 -23.1460 91° East 462 532 41,000  Level FlightAware Transoceanic
Fri 01:50:00 PM 46.0910 -22.9607 91° East 462 532 41,000  Level FlightAware Transoceanic
Fri 01:51:00 PM 46.0876 -22.7754 92° East 462 532 41,000  Level FlightAware Transoceanic
Fri 01:52:00 PM 46.0838 -22.5902 92° East 462 532 41,000  Level FlightAware Transoceanic
Fri 01:53:00 PM 46.0798 -22.4049 92° East 462 532 41,000  Level FlightAware Transoceanic
Fri 01:54:00 PM 46.0754 -22.2197 92° East 462 532 41,000  Level FlightAware Transoceanic
Fri 01:55:00 PM 46.0708 -22.0345 92° East 462 532 41,000  Level FlightAware Transoceanic
Fri 01:56:00 PM 46.0658 -21.8493 92° East 462 532 41,000  Level FlightAware Transoceanic
Fri 01:57:00 PM 46.0606 -21.6642 92° East 462 532 41,000  Level FlightAware Transoceanic
Fri 01:58:00 PM 46.0551 -21.4791 93° East 462 532 41,000  Level FlightAware Transoceanic
Fri 01:59:00 PM 46.0492 -21.2941 93° East 462 532 41,000  Level FlightAware Transoceanic
Fri 02:00:00 PM 46.0431 -21.1091 93° East 462 532 41,000  Level FlightAware Transoceanic
Fri 02:01:00 PM 46.0367 -20.9241 93° East 462 532 41,000  Level FlightAware Transoceanic
Fri 02:02:00 PM 46.0299 -20.7392 93° East 462 532 41,000  Level FlightAware Transoceanic
Fri 02:03:00 PM 46.0229 -20.5543 93° East 462 532 41,000  Level FlightAware Transoceanic
Fri 02:04:00 PM 46.0155 -20.3695 93° East 462 532 41,000  Level FlightAware Transoceanic
Fri 02:05:00 PM 46.0079 -20.1847 93° East 462 532 41,000  Level FlightAware Transoceanic
Fri 02:06:00 PM 46.0000 -20.0000 93° East  Level FlightAware Approximate
Fri 02:07:00 PM 46.0233 -19.8179 87° East  Level Estimated
Fri 02:08:00 PM 46.0285 -19.6329 88° East  Level FlightAware Approximate
Fri 02:09:00 PM 46.0334 -19.4479 88° East  Level FlightAware Approximate
Fri 02:10:00 PM 46.0380 -19.2628 88° East  Level FlightAware Approximate
Fri 02:11:00 PM 46.0423 -19.0777 88° East  Level FlightAware Approximate
Fri 02:12:00 PM 46.0462 -18.8926 88° East  Level FlightAware Approximate
Fri 02:13:00 PM 46.0499 -18.7074 88° East  Level FlightAware Approximate
Fri 02:14:00 PM 46.0533 -18.5222 88° East  Level FlightAware Approximate
Fri 02:15:00 PM 46.0564 -18.3370 89° East  Level FlightAware Approximate
Fri 02:16:00 PM 46.0592 -18.1518 89° East  Level FlightAware Approximate
Fri 02:17:00 PM 46.0617 -17.9665 89° East  Level FlightAware Approximate
Fri 02:18:00 PM 46.0639 -17.7813 89° East  Level FlightAware Approximate
Fri 02:19:00 PM 46.0658 -17.5960 89° East  Level FlightAware Approximate
Fri 02:20:00 PM 46.0674 -17.4107 89° East  Level FlightAware Approximate
Fri 02:21:00 PM 46.0688 -17.4091 88° East  Level FlightAware Approximate
Fri 02:22:00 PM 46.0729 -17.2239 88° East  Level FlightAware Approximate
Fri 02:23:00 PM 46.0767 -17.0386 88° East  Level FlightAware Approximate
Fri 02:24:00 PM 46.0803 -16.8533 88° East  Level FlightAware Approximate
Fri 02:25:00 PM 46.0835 -16.6680 88° East  Level FlightAware Approximate
Fri 02:26:00 PM 46.0864 -16.4827 89° East  Level FlightAware Approximate
Fri 02:27:00 PM 46.0890 -16.2974 89° East  Level FlightAware Approximate
Fri 02:28:00 PM 46.0914 -16.1120 89° East  Level FlightAware Approximate
Fri 02:29:00 PM 46.0934 -15.9267 89° East  Level FlightAware Approximate
Fri 02:30:00 PM 46.0951 -15.7413 89° East  Level FlightAware Approximate
Fri 02:31:00 PM 46.0965 -15.5559 89° East  Level FlightAware Approximate
Fri 02:32:00 PM 46.0976 -15.3705 89° East  Level FlightAware Approximate
Fri 02:33:00 PM 46.0985 -15.1851 90° East  Level FlightAware Approximate
Fri 02:34:00 PM 46.0990 -14.9997 90° East  Level FlightAware Approximate
Fri 02:35:00 PM 46.0992 -14.8143 90° East  Level FlightAware Approximate
Fri 02:36:00 PM 46.0992 -14.6289 90° East  Level FlightAware Approximate
Fri 02:37:00 PM 46.0988 -14.4435 90° East  Level FlightAware Approximate
Fri 02:38:00 PM 46.0981 -14.2581 90° East  Level FlightAware Approximate
Fri 02:39:00 PM 46.0971 -14.0727 90° East  Level FlightAware Approximate
Fri 02:40:00 PM 46.0959 -13.8873 91° East  Level FlightAware Approximate
Fri 02:41:00 PM 46.0943 -13.7019 91° East  Level FlightAware Approximate
Fri 02:42:00 PM 46.0924 -13.5165 91° East  Level FlightAware Approximate
Fri 02:43:00 PM 46.0902 -13.3312 91° East  Level FlightAware Approximate
Fri 02:44:00 PM 46.0878 -13.1458 91° East  Level FlightAware Approximate
Fri 02:45:00 PM 46.0850 -12.9605 91° East  Level FlightAware Approximate
Fri 02:46:00 PM 46.0819 -12.7752 91° East  Level FlightAware Approximate
Fri 02:47:00 PM 46.0785 -12.5899 91° East  Level FlightAware Approximate
Fri 02:48:00 PM 46.0749 -12.4047 92° East  Level FlightAware Approximate
Fri 02:49:00 PM 46.0709 -12.2194 92° East  Level FlightAware Approximate
Fri 02:50:00 PM 46.0666 -12.0342 92° East  Level FlightAware Approximate
Fri 02:51:00 PM 46.0621 -11.8491 92° East  Level FlightAware Approximate
Fri 02:52:00 PM 46.0572 -11.6639 92° East  Level FlightAware Approximate
Fri 02:53:00 PM 46.0520 -11.4788 92° East  Level FlightAware Approximate
Fri 02:54:00 PM 46.0466 -11.2937 92° East  Level FlightAware Approximate
Fri 02:55:00 PM 46.0408 -11.1087 93° East  Level FlightAware Approximate
Fri 02:56:00 PM 46.0348 -10.9237 93° East  Level FlightAware Approximate
Fri 02:57:00 PM 46.0284 -10.7387 93° East  Level FlightAware Approximate
Fri 02:58:00 PM 46.0217 -10.5538 93° East  Level FlightAware Approximate
Fri 02:59:00 PM 46.0148 -10.3690 93° East  Level FlightAware Approximate
Fri 03:00:00 PM 46.0075 -10.1841 93° East  Level FlightAware Approximate
Fri 03:01:00 PM 46.0000 -9.9994 90° East  Level FlightAware Approximate
Fri 03:02:00 PM 46.0009 -9.8143 90° East  Level FlightAware Approximate
Fri 03:03:00 PM 46.0014 -9.6292 90° East  Level FlightAware Approximate
Fri 03:04:00 PM 46.0017 -9.4441 90° East  Level FlightAware Approximate
Fri 03:05:00 PM 46.0016 -9.2591 90° East  Level FlightAware Approximate
Fri 03:06:00 PM 46.0013 -9.0740 90° East  Level FlightAware Approximate
Fri 03:07:00 PM 46.0007 -8.8889 90° East  Level FlightAware Approximate
Fri 03:08:00 PM 46.0001 -8.7038 90° East  Level FlightAware Approximate
Fri 03:09:00 PM 46.0005 -8.5187 90° East  Level FlightAware Approximate
Fri 03:10:00 PM 46.0006 -8.3337 90° East  Level FlightAware Approximate
Fri 03:11:00 PM 46.0004 -8.1486 90° East  Level FlightAware Approximate
Fri 03:12:00 PM 46.0023 -7.9637 85° East  Level FlightAware Approximate
Fri 03:13:00 PM 46.0140 -7.7793 85° East  Level FlightAware Approximate
Fri 03:14:00 PM 46.0253 -7.5949 85° East  Level FlightAware Approximate
Fri 03:15:00 PM 46.0364 -7.4104 85° East  Level FlightAware Approximate
Fri 03:16:00 PM 46.0471 -7.2258 85° East  Level FlightAware Approximate
Fri 03:17:00 PM 46.0576 -7.0412 85° East  Level FlightAware Approximate
Fri 03:18:00 PM 46.0678 -6.8565 85° East  Level FlightAware Approximate
Fri 03:19:00 PM 46.0776 -6.6717 86° East  Level FlightAware Approximate
Fri 03:20:00 PM 46.0872 -6.4869 86° East  Level FlightAware Approximate
Fri 03:21:00 PM 46.0965 -6.3020 86° East  Level FlightAware Approximate
Fri 03:22:00 PM 46.1055 -6.1170 86° East  Level FlightAware Approximate
Fri 03:23:00 PM 46.1141 -5.9320 86° East  Level FlightAware Approximate
Fri 03:24:00 PM 46.1225 -5.7469 86° East  Level FlightAware Approximate
Fri 03:25:00 PM 46.1306 -5.5618 86° East  Level FlightAware Approximate
Fri 03:26:00 PM 46.1384 -5.3766 86° East  Level FlightAware Approximate
Fri 03:27:00 PM 46.1459 -5.1913 87° East  Level FlightAware Approximate
Fri 03:28:00 PM 46.1530 -5.0061 87° East  Level FlightAware Approximate
Fri 03:29:00 PM 46.1599 -4.8207 87° East  Level FlightAware Approximate
Fri 03:30:00 PM 46.1665 -4.6353 87° East  Level FlightAware Approximate
Fri 03:31:00 PM 46.1728 -4.4499 87° East  Level FlightAware Approximate
Fri 03:32:00 PM 46.1788 -4.2645 87° East  Level FlightAware Approximate
Fri 03:33:00 PM 46.1844 -4.0789 87° East  Level FlightAware Approximate
Fri 03:34:00 PM 46.1898 -3.8934 88° East  Level FlightAware Approximate
Fri 03:35:00 PM 46.1949 -3.7078 88° East  Level FlightAware Approximate
Fri 03:36:00 PM 46.1997 -3.5222 88° East  Level FlightAware Approximate
Fri 03:37:00 PM 46.2042 -3.3366 88° East  Level FlightAware Approximate
Fri 03:38:00 PM 46.2084 -3.1509 88° East  Level FlightAware Approximate
Fri 03:39:00 PM 46.2122 -2.9652 88° East  Level FlightAware Approximate
Fri 03:40:00 PM 46.2158 -2.7795 88° East  Level FlightAware Approximate
Fri 03:41:00 PM 46.2191 -2.5937 88° East  Level FlightAware Approximate
Fri 03:42:00 PM 46.2221 -2.4080 89° East  Level FlightAware Approximate
Fri 03:43:00 PM 46.2247 -2.2222 89° East  Level FlightAware Approximate
Fri 03:44:00 PM 46.2271 -2.0364 89° East  Level FlightAware Approximate
Fri 03:45:00 PM 46.2292 -1.8505 89° East  Level FlightAware Approximate
Fri 03:46:00 PM 46.2310 -1.6647 89° East  Level FlightAware Approximate
Fri 03:47:00 PM 46.2324 -1.4789 89° East  Level FlightAware Approximate
Fri 03:48:00 PM 46.2336 -1.2930 89° East  Level FlightAware Approximate
Fri 03:49:00 PM 46.2345 -1.1071 90° East  Level FlightAware Approximate
Fri 03:50:00 PM 46.2351 -0.9213 90° East  Level FlightAware Approximate
Fri 03:51:00 PM 46.2353 -0.7354 90° East  Level FlightAware Approximate
Fri 03:52:00 PM 46.2353 -0.5495 90° East  Level FlightAware Approximate
Fri 03:53:00 PM 46.2350 -0.3637 90° East  Level FlightAware Approximate
Fri 03:54:00 PM 46.2343 -0.1778 90° East  Level FlightAware Approximate
Fri 03:55:00 PM 46.2334 0.0080 90° East  Level FlightAware Approximate
Fri 03:56:00 PM 46.2321 0.1939 90° East  Level FlightAware Approximate
Fri 03:57:00 PM 46.2306 0.3797 91° East  Level FlightAware Approximate
Fri 03:58:00 PM 46.2287 0.5656 91° East  Level FlightAware Approximate
Fri 03:59:00 PM 46.2266 0.7514 91° East  Level FlightAware Approximate
Fri 04:00:00 PM 46.2242 0.9372 91° East  Level FlightAware Approximate
Fri 04:01:00 PM 46.2214 1.1230 91° East  Level FlightAware Approximate
Fri 04:02:00 PM 46.2184 1.3087 91° East  Level FlightAware Approximate
Fri 04:03:00 PM 46.2150 1.4945 91° East  Level FlightAware Approximate
Fri 04:04:00 PM 46.2114 1.6802 92° East  Level FlightAware Approximate
Fri 04:05:00 PM 46.2074 1.8659 92° East  Level FlightAware Approximate
Fri 04:06:00 PM 46.2032 2.0516 92° East  Level FlightAware Approximate
Fri 04:07:00 PM 46.1987 2.2372 92° East  Level FlightAware Approximate
Fri 04:08:00 PM 46.1939 2.4228 92° East  Level FlightAware Approximate
Fri 04:09:00 PM 46.1887 2.6084 92° East  Level FlightAware Approximate
Fri 04:10:00 PM 46.1833 2.7939 92° East  Level FlightAware Approximate
Fri 04:11:00 PM 46.1776 2.9794 92° East  Level FlightAware Approximate
Fri 04:12:00 PM 46.1716 3.1649 93° East  Level FlightAware Approximate
Fri 04:13:00 PM 46.1653 3.3503 93° East  Level FlightAware Approximate
Fri 04:14:00 PM 46.1587 3.5357 93° East  Level FlightAware Approximate
Fri 04:15:00 PM 46.1518 3.7210 93° East  Level FlightAware Approximate
Fri 04:16:00 PM 46.1446 3.9063 93° East  Level FlightAware Approximate
Fri 04:17:00 PM 46.1371 4.0915 93° East  Level FlightAware Approximate
Fri 04:18:00 PM 46.1293 4.2767 93° East  Level FlightAware Approximate
Fri 04:19:00 PM 46.1212 4.4618 94° East  Level FlightAware Approximate
Fri 04:20:00 PM 46.1128 4.6469 94° East  Level FlightAware Approximate
Fri 04:21:00 PM 46.1040 4.8319 94° East  Level FlightAware Approximate
Fri 04:22:00 PM 46.0951 5.0169 94° East  Level FlightAware Approximate
Fri 04:23:00 PM 46.0858 5.2018 94° East  Level FlightAware Approximate
Fri 04:24:00 PM 46.0761 5.3866 94° East  Level FlightAware Approximate
Fri 04:25:00 PM 46.0663 5.5714 94° East  Level FlightAware Approximate
Fri 04:26:00 PM 46.0561 5.7561 94° East  Level FlightAware Approximate
Fri 04:27:00 PM 46.0456 5.9407 95° East  Level FlightAware Approximate
Fri 04:28:00 PM 46.0348 6.1252 95° East  Level FlightAware Approximate
Fri 04:29:00 PM 46.0237 6.3097 95° East  Level FlightAware Approximate
Fri 04:30:00 PM 46.0123 6.4941 95° East  Level FlightAware Approximate
Fri 04:31:00 PM 46.0006 6.6785 95° East  Level FlightAware Approximate
Fri 04:32:00 PM 45.9887 6.8627 95° East  Level FlightAware Approximate
Fri 04:33:00 PM 45.9764 7.0469 95° East  Level FlightAware Approximate
Fri 04:34:00 PM 45.9638 7.2310 96° East  Level FlightAware Approximate
Fri 04:35:00 PM 45.9510 7.4150 96° East  Level FlightAware Approximate
Fri 04:36:00 PM 45.9378 7.5989 96° East  Level FlightAware Approximate
Fri 04:37:00 PM 45.9244 7.7828 96° East  Level FlightAware Approximate
Fri 04:38:00 PM 45.9106 7.9665 96° East  Level FlightAware Approximate
Fri 04:39:00 PM 45.8966 8.1502 96° East  Level FlightAware Approximate
Fri 04:40:00 PM 45.8823 8.3337 96° East  Level FlightAware Approximate
Fri 04:41:00 PM 45.8676 8.5172 96° East  Level FlightAware Approximate
Fri 04:42:00 PM 45.8527 8.7005 97° East  Level FlightAware Approximate
Fri 04:43:00 PM 45.8406 8.8843 95° East  Level FlightAware Approximate
Fri 04:44:00 PM 45.8255 9.0674 99° East  Level FlightAware Approximate
Fri 04:45:00 PM 45.8041 9.2493 100° East  Level FlightAware Approximate
Fri 04:46:00 PM 45.7923 9.4328 94° East  Level FlightAware Approximate
Fri 04:47:00 PM 45.7813 9.6164 100° East  Level FlightAware Approximate
Fri 04:48:00 PM 45.7541 9.7963 106° East  Level FlightAware Approximate
Fri 04:49:00 PM 45.7424 9.9793 94° East  Level FlightAware Approximate
Fri 04:50:00 PM 45.7335 10.1631 94° East  Level FlightAware Approximate
Fri 04:51:00 PM 45.7103 10.3442 100° East  Level FlightAware Approximate
Fri 04:52:00 PM 45.6866 10.5251 101° East  Level FlightAware Approximate
Fri 04:53:00 PM 45.6680 10.7072 98° East  Level FlightAware Approximate
Fri 04:54:00 PM 45.6499 10.8893 98° East  Level FlightAware Approximate
Fri 04:55:00 PM 45.6315 11.0713 98° East  Level FlightAware Approximate
Fri 04:56:00 PM 45.6141 11.2534 96° East  Level FlightAware Approximate
Fri 04:57:00 PM 45.6010 11.4362 96° East  Level FlightAware Approximate
Fri 04:58:00 PM 45.5815 11.6178 99° East  Level FlightAware Approximate
Fri 04:59:00 PM 45.5597 11.7988 101° East  Level FlightAware Approximate
Fri 05:00:00 PM 45.5340 11.9786 101° East  Level FlightAware Approximate
Fri 05:01:00 PM 45.5167 12.1544 90° East  Level FlightAware Approximate
Fri 05:02:00 PM 45.5073 12.2988 101° East  Level FlightAware Approximate
Fri 05:03:00 PM 45.5000 12.3500 101° East  Level FlightAware Approximate
Fri 05:04:00 PM 45.5051 12.3519 101° East  Level Estimated
Fri 05:05:00 PM 45.5000 12.3500 101° East  Level FlightAware Approximate
Fri 05:06:00 PM 45.5051 12.3519 101° East  Level Estimated
Fri 05:07:00 PM 45.5000 12.3500 101° East  Level FlightAware Approximate
Fri 05:08:00 PM 45.5051 12.3519 101° East  Level Estimated
Fri 05:09:00 PM 45.5000 12.3500 101° East  Level FlightAware Approximate
Fri 05:10:00 PM 45.5051 12.3519 101° East  Level Estimated
Fri 05:11:00 PM 45.5000 12.3500 101° East  Level FlightAware Approximate
Fri 05:12:00 PM 45.5051 12.3519 101° East  Level Estimated
Fri 05:13:00 PM 45.5000 12.3500 101° East  Level FlightAware Approximate
Fri 05:14:00 PM 45.5051 12.3519 101° East  Level Estimated
Fri 05:15:00 PM 45.5000 12.3500 101° East  Level FlightAware Approximate
Fri 05:16:00 PM 45.5051 12.3519 101° East  Level Estimated
Fri 05:17:00 PM 45.5000 12.3500 101° East  Level FlightAware Approximate
Fri 05:18:00 PM 45.5051 12.3519 101° East  Level Estimated
Fri 05:19:00 PM 45.5000 12.3500 101° East  Level FlightAware Approximate
Fri 05:20:00 PM 45.5051 12.3519 101° East  Level Estimated
Fri 05:21:00 PM 45.5000 12.3500 101° East  Level FlightAware Approximate
Fri 05:22:00 PM 45.5051 12.3519 101° East  Level Estimated

Login

Don't have an account? Register now (free) for customized features, flight alerts, and more!